Latest Weather Observations for Fawkner Beacon

IDV60801

Issued at 9:05 pm EDT Friday 24 October 2014 (issued every 30 minutes, with the page automatically refreshed every 10 minutes)

About weather observations | Map of weather stations | Latest weather observations for VIC | Other Formats
Station Details ID: 086376 Name: FAWKNER BEACON Lat: -37.91 Lon: 144.93 Height: 17.0 m
Data from the previous 72 hours. | See also: Recent months for locations in Victoria
Date/Time
EDT
Temp
°C
App
Temp
°C
Dew
Point
Rel
Hum
%
Delta-T
°C
Wind Press
QNH
hPa
Press
MSL
hPa
Rain
since 9 am
mm
Dir
 
Spd
km/h
Gust
km/h
Spd
kts
Gust
kts
24/09:00pm - - - - - SSE 39 46 21 25 - - -
24/08:30pm - - - - - S 48 57 26 31 - - -
24/08:00pm - - - - - S 48 59 26 32 - - -
24/07:30pm - - - - - S 39 48 21 26 - - -
24/07:00pm - - - - - S 39 48 21 26 - - -
24/06:30pm - - - - - S 35 41 19 22 - - -
24/06:00pm - - - - - S 24 30 13 16 - - -
24/05:30pm - - - - - SSE 19 22 10 12 - - -
24/05:00pm - - - - - ESE 17 20 9 11 - - -
24/04:30pm - - - - - ESE 13 15 7 8 - - -
24/04:00pm - - - - - SE 9 17 5 9 - - -
24/03:30pm - - - - - SSE 9 11 5 6 - - -
24/03:00pm - - - - - SE 9 13 5 7 - - -
24/02:30pm - - - - - ESE 13 15 7 8 - - -
24/02:00pm - - - - - E 13 15 7 8 - - -
24/01:30pm - - - - - SE 13 20 7 11 - - -
24/01:00pm - - - - - SE 11 13 6 7 - - -
24/12:30pm - - - - - SE 11 13 6 7 - - -
24/12:00pm - - - - - SSE 9 11 5 6 - - -
24/11:30am - - - - - S 11 15 6 8 - - -
24/11:00am - - - - - S 11 15 6 8 - - -
24/10:30am - - - - - SW 7 11 4 6 - - -
24/10:00am - - - - - NW 7 7 4 4 - - -
24/09:30am - - - - - CALM 0 0 0 0 - - -
24/09:00am - - - - - NNW 4 7 2 4 - - -
24/08:30am - - - - - N 9 13 5 7 - - -
24/08:00am - - - - - N 11 13 6 7 - - -
24/07:30am - - - - - N 9 13 5 7 - - -
24/07:00am - - - - - N 9 13 5 7 - - -
24/06:30am - - - - - N 9 13 5 7 - - -
24/06:00am - - - - - N 13 15 7 8 - - -
24/05:30am - - - - - NNW 11 15 6 8 - - -
24/05:00am - - - - - NW 13 15 7 8 - - -
24/04:30am - - - - - NNW 11 13 6 7 - - -
24/04:00am - - - - - NNW 13 15 7 8 - - -
24/03:30am - - - - - N 13 15 7 8 - - -
24/03:00am - - - - - N 13 15 7 8 - - -
24/02:30am - - - - - N 9 11 5 6 - - -
24/02:00am - - - - - N 9 11 5 6 - - -
24/01:30am - - - - - N 11 13 6 7 - - -
24/01:00am - - - - - ENE 9 13 5 7 - - -
24/12:30am - - - - - NE 13 17 7 9 - - -
24/12:00am - - - - - NE 13 15 7 8 - - -
 
Date/Time
EDT
Temp
°C
App
Temp
°C
Dew
Point
Rel
Hum
%
Delta-T
°C
Wind Press
QNH
hPa
Press
MSL
hPa
Rain
since 9 am
mm
Dir
 
Spd
km/h
Gust
km/h
Spd
kts
Gust
kts
23/11:30pm - - - - - ENE 17 20 9 11 - - -
23/11:00pm - - - - - E 20 24 11 13 - - -
23/10:30pm - - - - - E 26 32 14 17 - - -
23/10:00pm - - - - - E 30 35 16 19 - - -
23/09:30pm - - - - - E 33 41 18 22 - - -
23/09:00pm - - - - - E 35 43 19 23 - - -
23/08:30pm - - - - - E 39 46 21 25 - - -
23/08:00pm - - - - - E 44 52 24 28 - - -
23/07:30pm - - - - - E 43 50 23 27 - - -
23/07:00pm - - - - - E 44 50 24 27 - - -
23/06:30pm - - - - - E 43 48 23 26 - - -
23/06:00pm - - - - - E 39 46 21 25 - - -
23/05:30pm - - - - - ESE 35 41 19 22 - - -
23/05:00pm - - - - - ESE 33 41 18 22 - - -
23/04:30pm - - - - - ESE 28 32 15 17 - - -
23/04:00pm - - - - - S 24 28 13 15 - - -
23/03:30pm - - - - - S 24 28 13 15 - - -
23/03:00pm - - - - - SSW 22 26 12 14 - - -
23/02:30pm - - - - - S 17 20 9 11 - - -
23/02:00pm - - - - - S 19 22 10 12 - - -
23/01:30pm - - - - - SSE 17 22 9 12 - - -
23/01:00pm - - - - - SSE 19 22 10 12 - - -
23/12:30pm - - - - - SSE 17 20 9 11 - - -
23/12:00pm - - - - - S 19 22 10 12 - - -
23/11:30am - - - - - SSE 15 17 8 9 - - -
23/11:00am - - - - - SSE 17 20 9 11 - - -
23/10:30am - - - - - S 17 20 9 11 - - -
23/10:00am - - - - - S 13 17 7 9 - - -
23/09:30am - - - - - SSE 17 17 9 9 - - -
23/09:00am - - - - - SSE 15 20 8 11 - - -
23/08:30am - - - - - SE 15 20 8 11 - - -
23/08:00am - - - - - SSE 19 22 10 12 - - -
23/07:30am - - - - - S 17 20 9 11 - - -
23/07:00am - - - - - S 20 24 11 13 - - -
23/06:30am - - - - - SSE 22 26 12 14 - - -
23/06:00am - - - - - S 22 26 12 14 - - -
23/05:30am - - - - - S 24 28 13 15 - - -
23/05:00am - - - - - S 22 28 12 15 - - -
23/04:30am - - - - - S 24 28 13 15 - - -
23/04:00am - - - - - SSW 17 24 9 13 - - -
23/03:30am - - - - - SSW 19 22 10 12 - - -
23/03:00am - - - - - SW 17 20 9 11 - - -
23/02:30am - - - - - SSW 20 24 11 13 - - -
23/02:00am - - - - - SSW 22 24 12 13 - - -
23/01:30am - - - - - SSW 26 30 14 16 - - -
23/01:00am - - - - - SSW 20 26 11 14 - - -
23/12:30am - - - - - SSW 19 20 10 11 - - -
23/12:00am - - - - - S 28 33 15 18 - - -
 
Date/Time
EDT
Temp
°C
App
Temp
°C
Dew
Point
Rel
Hum
%
Delta-T
°C
Wind Press
QNH
hPa
Press
MSL
hPa
Rain
since 9 am
mm
Dir
 
Spd
km/h
Gust
km/h
Spd
kts
Gust
kts
22/11:30pm - - - - - S 37 44 20 24 - - -
22/11:00pm - - - - - SSW 32 41 17 22 - - -
22/10:30pm - - - - - S 33 41 18 22 - - -
22/10:00pm - - - - - SSW 37 48 20 26 - - -
22/09:30pm - - - - - SW 28 32 15 17 - - -
22/09:00pm - - - - - S 32 39 17 21 - - -
22/08:30pm - - - - - S 22 30 12 16 - - -
22/08:00pm - - - - - W 24 30 13 16 - - -
22/07:30pm - - - - - NNW 28 32 15 17 - - -
22/07:00pm - - - - - N 28 30 15 16 - - -
22/06:30pm - - - - - N 30 32 16 17 - - -
22/06:00pm - - - - - N 33 35 18 19 - - -
22/05:30pm - - - - - N 35 39 19 21 - - -
22/05:00pm - - - - - N 26 30 14 16 - - -
22/04:30pm - - - - - N 26 32 14 17 - - -
22/04:00pm - - - - - N 26 30 14 16 - - -
22/03:30pm - - - - - N 26 30 14 16 - - -
22/03:00pm - - - - - N 24 28 13 15 - - -
22/02:30pm - - - - - N 24 26 13 14 - - -
22/02:00pm - - - - - N 24 30 13 16 - - -
22/01:30pm - - - - - N 26 30 14 16 - - -
22/01:00pm - - - - - N 30 32 16 17 - - -
22/12:30pm - - - - - N 26 30 14 16 - - -
22/12:00pm - - - - - N 33 39 18 21 - - -
22/11:30am - - - - - N 33 41 18 22 - - -
22/11:00am - - - - - N 39 48 21 26 - - -
22/10:30am - - - - - N 41 48 22 26 - - -
22/10:00am - - - - - N 43 48 23 26 - - -
22/09:30am - - - - - N 41 48 22 26 - - -
22/09:00am - - - - - N 37 46 20 25 - - -
22/08:30am - - - - - N 46 57 25 31 - - -
22/08:00am - - - - - N 46 57 25 31 - - -
22/07:30am - - - - - N 46 54 25 29 - - -
22/07:00am - - - - - N 39 46 21 25 - - -
22/06:30am - - - - - N 30 35 16 19 - - -
22/06:00am - - - - - N 26 30 14 16 - - -
22/05:30am - - - - - N 20 24 11 13 - - -
22/05:00am - - - - - N 19 22 10 12 - - -
22/04:30am - - - - - N 17 20 9 11 - - -
22/04:00am - - - - - N 17 20 9 11 - - -
22/03:30am - - - - - NNE 17 20 9 11 - - -
22/03:00am - - - - - N 11 13 6 7 - - -
22/02:30am - - - - - N 9 11 5 6 - - -
22/02:00am - - - - - NNE 7 9 4 5 - - -
22/01:30am - - - - - N 7 9 4 5 - - -
22/01:00am - - - - - N 11 13 6 7 - - -
22/12:30am - - - - - NE 11 13 6 7 - - -
22/12:00am - - - - - NE 15 15 8 8 - - -
 
Date/Time
EDT
Temp
°C
App
Temp
°C
Dew
Point
Rel
Hum
%
Delta-T
°C
Wind Press
QNH
hPa
Press
MSL
hPa
Rain
since 9 am
mm
Dir
 
Spd
km/h
Gust
km/h
Spd
kts
Gust
kts
21/11:30pm - - - - - ENE 17 20 9 11 - - -
21/11:00pm - - - - - E 15 17 8 9 - - -
21/10:30pm - - - - - E 20 22 11 12 - - -
21/10:00pm - - - - - E 20 24 11 13 - - -
21/09:30pm - - - - - E 24 26 13 14 - - -

Other Formats:

Comma delimited format used in spreadsheet applications
http://www.bom.gov.au/fwo/IDV60801/IDV60801.95872.axf

JavaScript Object Notation format (JSON) in row-major order
http://www.bom.gov.au/fwo/IDV60801/IDV60801.95872.json